sensor_id;sensor_type;location;lat;lon;timestamp;P1;durP1;ratioP1;P2;durP2;ratioP2
53036;SDS011;38924;52.134;4.666;2023-06-10T00:02:06;14.00;;;12.65;;
53036;SDS011;38924;52.134;4.666;2023-06-10T00:04:33;16.63;;;11.25;;
53036;SDS011;38924;52.134;4.666;2023-06-10T00:06:58;15.07;;;11.15;;
53036;SDS011;38924;52.134;4.666;2023-06-10T00:09:24;12.82;;;11.55;;
53036;SDS011;38924;52.134;4.666;2023-06-10T00:11:51;14.30;;;12.05;;
53036;SDS011;38924;52.134;4.666;2023-06-10T00:14:16;12.55;;;11.45;;
53036;SDS011;38924;52.134;4.666;2023-06-10T00:16:42;12.50;;;11.27;;
53036;SDS011;38924;52.134;4.666;2023-06-10T00:19:10;11.77;;;10.60;;
53036;SDS011;38924;52.134;4.666;2023-06-10T00:21:39;12.90;;;11.55;;
53036;SDS011;38924;52.134;4.666;2023-06-10T00:24:06;16.05;;;12.43;;
53036;SDS011;38924;52.134;4.666;2023-06-10T00:26:32;15.00;;;13.45;;
53036;SDS011;38924;52.134;4.666;2023-06-10T00:28:58;17.95;;;12.25;;
53036;SDS011;38924;52.134;4.666;2023-06-10T00:31:24;16.58;;;12.38;;
53036;SDS011;38924;52.134;4.666;2023-06-10T00:33:51;17.30;;;13.60;;
53036;SDS011;38924;52.134;4.666;2023-06-10T00:36:17;12.98;;;11.68;;
53036;SDS011;38924;52.134;4.666;2023-06-10T00:38:43;13.30;;;11.43;;
53036;SDS011;38924;52.134;4.666;2023-06-10T00:41:08;13.98;;;12.52;;
53036;SDS011;38924;52.134;4.666;2023-06-10T00:43:34;18.80;;;12.88;;
53036;SDS011;38924;52.134;4.666;2023-06-10T00:46:00;13.80;;;11.82;;
53036;SDS011;38924;52.134;4.666;2023-06-10T00:48:26;17.02;;;14.95;;
53036;SDS011;38924;52.134;4.666;2023-06-10T00:50:52;12.35;;;10.65;;
53036;SDS011;38924;52.134;4.666;2023-06-10T00:53:18;13.82;;;11.20;;
53036;SDS011;38924;52.134;4.666;2023-06-10T00:55:43;12.20;;;11.00;;
53036;SDS011;38924;52.134;4.666;2023-06-10T00:58:09;14.50;;;13.20;;
53036;SDS011;38924;52.134;4.666;2023-06-10T01:00:35;11.95;;;10.85;;
53036;SDS011;38924;52.134;4.666;2023-06-10T01:03:02;12.55;;;11.32;;
53036;SDS011;38924;52.134;4.666;2023-06-10T01:05:33;12.18;;;10.85;;
53036;SDS011;38924;52.134;4.666;2023-06-10T01:08:01;13.20;;;11.77;;
53036;SDS011;38924;52.134;4.666;2023-06-10T01:10:33;13.02;;;11.27;;
53036;SDS011;38924;52.134;4.666;2023-06-10T01:12:59;12.77;;;10.23;;
53036;SDS011;38924;52.134;4.666;2023-06-10T01:15:30;11.27;;;10.27;;
53036;SDS011;38924;52.134;4.666;2023-06-10T01:17:59;14.13;;;11.63;;
53036;SDS011;38924;52.134;4.666;2023-06-10T01:20:29;11.93;;;10.60;;
53036;SDS011;38924;52.134;4.666;2023-06-10T01:22:57;13.80;;;10.45;;
53036;SDS011;38924;52.134;4.666;2023-06-10T01:25:23;11.60;;;9.88;;
53036;SDS011;38924;52.134;4.666;2023-06-10T01:27:54;12.60;;;10.13;;
53036;SDS011;38924;52.134;4.666;2023-06-10T01:30:22;13.15;;;10.50;;
53036;SDS011;38924;52.134;4.666;2023-06-10T01:32:50;11.88;;;10.02;;
53036;SDS011;38924;52.134;4.666;2023-06-10T01:35:15;13.00;;;11.70;;
53036;SDS011;38924;52.134;4.666;2023-06-10T01:37:42;10.85;;;9.70;;
53036;SDS011;38924;52.134;4.666;2023-06-10T01:40:13;13.32;;;11.32;;
53036;SDS011;38924;52.134;4.666;2023-06-10T01:42:39;11.88;;;10.68;;
53036;SDS011;38924;52.134;4.666;2023-06-10T01:45:05;12.05;;;9.82;;
53036;SDS011;38924;52.134;4.666;2023-06-10T01:47:31;15.52;;;11.10;;
53036;SDS011;38924;52.134;4.666;2023-06-10T01:49:59;14.70;;;10.18;;
53036;SDS011;38924;52.134;4.666;2023-06-10T01:52:25;11.70;;;9.88;;
53036;SDS011;38924;52.134;4.666;2023-06-10T01:54:50;17.55;;;10.30;;
53036;SDS011;38924;52.134;4.666;2023-06-10T01:57:16;10.63;;;9.13;;
53036;SDS011;38924;52.134;4.666;2023-06-10T01:59:42;10.68;;;9.52;;
53036;SDS011;38924;52.134;4.666;2023-06-10T02:02:09;20.23;;;10.05;;
53036;SDS011;38924;52.134;4.666;2023-06-10T02:04:35;11.13;;;9.90;;
53036;SDS011;38924;52.134;4.666;2023-06-10T02:07:01;13.57;;;9.52;;
53036;SDS011;38924;52.134;4.666;2023-06-10T02:09:32;10.40;;;9.00;;
53036;SDS011;38924;52.134;4.666;2023-06-10T02:12:03;16.23;;;9.40;;
53036;SDS011;38924;52.134;4.666;2023-06-10T02:14:29;12.98;;;9.98;;
53036;SDS011;38924;52.134;4.666;2023-06-10T02:16:55;13.05;;;8.82;;
53036;SDS011;38924;52.134;4.666;2023-06-10T02:19:22;22.58;;;8.55;;
53036;SDS011;38924;52.134;4.666;2023-06-10T02:21:48;9.63;;;7.72;;
53036;SDS011;38924;52.134;4.666;2023-06-10T02:24:17;12.95;;;8.45;;
53036;SDS011;38924;52.134;4.666;2023-06-10T02:26:43;8.98;;;8.18;;
53036;SDS011;38924;52.134;4.666;2023-06-10T02:29:09;8.80;;;7.43;;
53036;SDS011;38924;52.134;4.666;2023-06-10T02:31:35;10.82;;;7.38;;
53036;SDS011;38924;52.134;4.666;2023-06-10T02:34:01;10.07;;;8.75;;
53036;SDS011;38924;52.134;4.666;2023-06-10T02:36:29;10.95;;;7.90;;
53036;SDS011;38924;52.134;4.666;2023-06-10T02:38:55;12.00;;;8.55;;
53036;SDS011;38924;52.134;4.666;2023-06-10T02:41:22;13.48;;;8.13;;
53036;SDS011;38924;52.134;4.666;2023-06-10T02:43:49;10.23;;;7.30;;
53036;SDS011;38924;52.134;4.666;2023-06-10T02:46:15;12.70;;;8.85;;
53036;SDS011;38924;52.134;4.666;2023-06-10T02:48:43;9.35;;;7.65;;
53036;SDS011;38924;52.134;4.666;2023-06-10T02:51:15;15.27;;;10.00;;
53036;SDS011;38924;52.134;4.666;2023-06-10T02:53:45;9.98;;;8.00;;
53036;SDS011;38924;52.134;4.666;2023-06-10T02:56:13;10.40;;;7.68;;
53036;SDS011;38924;52.134;4.666;2023-06-10T02:58:41;10.35;;;9.15;;
53036;SDS011;38924;52.134;4.666;2023-06-10T03:01:08;12.68;;;8.57;;
53036;SDS011;38924;52.134;4.666;2023-06-10T03:03:43;12.15;;;8.30;;
53036;SDS011;38924;52.134;4.666;2023-06-10T03:06:12;10.80;;;8.13;;
53036;SDS011;38924;52.134;4.666;2023-06-10T03:08:39;12.10;;;9.15;;
53036;SDS011;38924;52.134;4.666;2023-06-10T03:11:09;9.52;;;8.15;;
53036;SDS011;38924;52.134;4.666;2023-06-10T03:13:35;12.95;;;8.55;;
53036;SDS011;38924;52.134;4.666;2023-06-10T03:16:02;10.48;;;8.85;;
53036;SDS011;38924;52.134;4.666;2023-06-10T03:18:29;16.75;;;8.43;;
53036;SDS011;38924;52.134;4.666;2023-06-10T03:20:55;12.60;;;8.32;;
53036;SDS011;38924;52.134;4.666;2023-06-10T03:23:22;9.88;;;8.88;;
53036;SDS011;38924;52.134;4.666;2023-06-10T03:25:49;10.98;;;9.65;;
53036;SDS011;38924;52.134;4.666;2023-06-10T03:28:17;10.27;;;8.48;;
53036;SDS011;38924;52.134;4.666;2023-06-10T03:30:43;12.90;;;8.55;;
53036;SDS011;38924;52.134;4.666;2023-06-10T03:33:09;13.13;;;9.07;;
53036;SDS011;38924;52.134;4.666;2023-06-10T03:35:36;11.85;;;8.68;;
53036;SDS011;38924;52.134;4.666;2023-06-10T03:38:03;13.88;;;9.55;;
53036;SDS011;38924;52.134;4.666;2023-06-10T03:40:30;11.00;;;8.35;;
53036;SDS011;38924;52.134;4.666;2023-06-10T03:42:57;11.43;;;9.43;;
53036;SDS011;38924;52.134;4.666;2023-06-10T03:45:23;13.57;;;8.60;;
53036;SDS011;38924;52.134;4.666;2023-06-10T03:47:49;11.30;;;9.52;;
53036;SDS011;38924;52.134;4.666;2023-06-10T03:50:19;9.52;;;8.57;;
53036;SDS011;38924;52.134;4.666;2023-06-10T03:52:46;11.38;;;9.57;;
53036;SDS011;38924;52.134;4.666;2023-06-10T03:55:13;11.38;;;9.05;;
53036;SDS011;38924;52.134;4.666;2023-06-10T03:57:42;10.85;;;9.27;;
53036;SDS011;38924;52.134;4.666;2023-06-10T04:00:08;13.15;;;8.90;;
53036;SDS011;38924;52.134;4.666;2023-06-10T04:02:40;14.82;;;9.75;;
53036;SDS011;38924;52.134;4.666;2023-06-10T04:05:23;14.88;;;8.68;;
53036;SDS011;38924;52.134;4.666;2023-06-10T04:07:51;12.32;;;9.27;;
53036;SDS011;38924;52.134;4.666;2023-06-10T04:10:17;11.93;;;9.20;;
53036;SDS011;38924;52.134;4.666;2023-06-10T04:12:43;10.73;;;8.35;;
53036;SDS011;38924;52.134;4.666;2023-06-10T04:15:10;10.63;;;8.65;;
53036;SDS011;38924;52.134;4.666;2023-06-10T04:17:37;18.15;;;8.82;;
53036;SDS011;38924;52.134;4.666;2023-06-10T04:20:03;10.13;;;9.05;;
53036;SDS011;38924;52.134;4.666;2023-06-10T04:22:32;13.40;;;8.88;;
53036;SDS011;38924;52.134;4.666;2023-06-10T04:24:57;8.95;;;8.00;;
53036;SDS011;38924;52.134;4.666;2023-06-10T04:27:24;9.93;;;8.50;;
53036;SDS011;38924;52.134;4.666;2023-06-10T04:29:51;13.90;;;8.10;;
53036;SDS011;38924;52.134;4.666;2023-06-10T04:32:16;13.63;;;8.07;;
53036;SDS011;38924;52.134;4.666;2023-06-10T04:34:42;14.05;;;8.95;;
53036;SDS011;38924;52.134;4.666;2023-06-10T04:37:08;12.90;;;8.60;;
53036;SDS011;38924;52.134;4.666;2023-06-10T04:39:37;13.15;;;9.50;;
53036;SDS011;38924;52.134;4.666;2023-06-10T04:42:03;12.35;;;8.60;;
53036;SDS011;38924;52.134;4.666;2023-06-10T04:44:29;11.68;;;8.35;;
53036;SDS011;38924;52.134;4.666;2023-06-10T04:46:56;9.65;;;8.43;;
53036;SDS011;38924;52.134;4.666;2023-06-10T04:49:22;10.10;;;8.07;;
53036;SDS011;38924;52.134;4.666;2023-06-10T04:51:48;12.25;;;9.05;;
53036;SDS011;38924;52.134;4.666;2023-06-10T04:54:13;11.15;;;7.68;;
53036;SDS011;38924;52.134;4.666;2023-06-10T04:56:39;14.32;;;8.95;;
53036;SDS011;38924;52.134;4.666;2023-06-10T04:59:05;12.35;;;8.23;;
53036;SDS011;38924;52.134;4.666;2023-06-10T05:01:30;10.18;;;8.85;;
53036;SDS011;38924;52.134;4.666;2023-06-10T05:03:56;15.55;;;8.30;;
53036;SDS011;38924;52.134;4.666;2023-06-10T05:06:22;11.52;;;7.95;;
53036;SDS011;38924;52.134;4.666;2023-06-10T05:08:47;16.92;;;9.60;;
53036;SDS011;38924;52.134;4.666;2023-06-10T05:11:13;20.13;;;8.77;;
53036;SDS011;38924;52.134;4.666;2023-06-10T05:13:39;11.68;;;8.77;;
53036;SDS011;38924;52.134;4.666;2023-06-10T05:16:05;11.82;;;8.27;;
53036;SDS011;38924;52.134;4.666;2023-06-10T05:18:32;10.30;;;8.32;;
53036;SDS011;38924;52.134;4.666;2023-06-10T05:20:57;9.75;;;7.80;;
53036;SDS011;38924;52.134;4.666;2023-06-10T05:23:23;13.35;;;8.55;;
53036;SDS011;38924;52.134;4.666;2023-06-10T05:25:49;13.23;;;8.93;;
53036;SDS011;38924;52.134;4.666;2023-06-10T05:28:14;18.58;;;9.13;;
53036;SDS011;38924;52.134;4.666;2023-06-10T05:30:40;13.48;;;8.00;;
53036;SDS011;38924;52.134;4.666;2023-06-10T05:33:05;10.63;;;8.38;;
53036;SDS011;38924;52.134;4.666;2023-06-10T05:35:31;11.23;;;8.90;;
53036;SDS011;38924;52.134;4.666;2023-06-10T05:37:57;13.90;;;9.40;;
53036;SDS011;38924;52.134;4.666;2023-06-10T05:40:23;12.38;;;9.88;;
53036;SDS011;38924;52.134;4.666;2023-06-10T05:42:48;16.63;;;10.07;;
53036;SDS011;38924;52.134;4.666;2023-06-10T05:45:14;11.77;;;10.05;;
53036;SDS011;38924;52.134;4.666;2023-06-10T05:47:40;16.67;;;9.93;;
53036;SDS011;38924;52.134;4.666;2023-06-10T05:50:06;10.38;;;9.38;;
53036;SDS011;38924;52.134;4.666;2023-06-10T05:52:33;12.20;;;11.00;;
53036;SDS011;38924;52.134;4.666;2023-06-10T05:54:59;13.77;;;12.02;;
53036;SDS011;38924;52.134;4.666;2023-06-10T05:57:25;15.95;;;12.18;;
53036;SDS011;38924;52.134;4.666;2023-06-10T05:59:51;17.70;;;10.48;;
53036;SDS011;38924;52.134;4.666;2023-06-10T06:02:20;12.32;;;10.85;;
53036;SDS011;38924;52.134;4.666;2023-06-10T06:04:45;11.25;;;9.75;;
53036;SDS011;38924;52.134;4.666;2023-06-10T06:07:11;10.07;;;9.05;;
53036;SDS011;38924;52.134;4.666;2023-06-10T06:09:37;13.82;;;9.90;;
53036;SDS011;38924;52.134;4.666;2023-06-10T06:12:03;17.73;;;12.65;;
53036;SDS011;38924;52.134;4.666;2023-06-10T06:14:30;11.20;;;10.15;;
53036;SDS011;38924;52.134;4.666;2023-06-10T06:16:58;12.30;;;10.05;;
53036;SDS011;38924;52.134;4.666;2023-06-10T06:19:24;11.30;;;10.02;;
53036;SDS011;38924;52.134;4.666;2023-06-10T06:21:50;12.00;;;10.75;;
53036;SDS011;38924;52.134;4.666;2023-06-10T06:24:16;16.45;;;13.48;;
53036;SDS011;38924;52.134;4.666;2023-06-10T06:26:42;14.55;;;11.88;;
53036;SDS011;38924;52.134;4.666;2023-06-10T06:29:08;17.35;;;15.82;;
53036;SDS011;38924;52.134;4.666;2023-06-10T06:31:33;16.55;;;14.95;;
53036;SDS011;38924;52.134;4.666;2023-06-10T06:33:59;19.38;;;17.75;;
53036;SDS011;38924;52.134;4.666;2023-06-10T06:36:25;17.65;;;16.20;;
53036;SDS011;38924;52.134;4.666;2023-06-10T06:38:50;17.80;;;16.02;;
53036;SDS011;38924;52.134;4.666;2023-06-10T06:41:16;15.43;;;13.57;;
53036;SDS011;38924;52.134;4.666;2023-06-10T06:43:42;18.25;;;16.58;;
53036;SDS011;38924;52.134;4.666;2023-06-10T06:46:24;16.90;;;15.40;;
53036;SDS011;38924;52.134;4.666;2023-06-10T06:48:50;15.95;;;14.38;;
53036;SDS011;38924;52.134;4.666;2023-06-10T06:51:16;15.57;;;14.27;;
53036;SDS011;38924;52.134;4.666;2023-06-10T06:53:41;17.85;;;16.42;;
53036;SDS011;38924;52.134;4.666;2023-06-10T06:56:10;15.27;;;14.07;;
53036;SDS011;38924;52.134;4.666;2023-06-10T06:58:36;17.70;;;16.40;;
53036;SDS011;38924;52.134;4.666;2023-06-10T07:01:01;16.80;;;15.27;;
53036;SDS011;38924;52.134;4.666;2023-06-10T07:03:27;23.92;;;16.55;;
53036;SDS011;38924;52.134;4.666;2023-06-10T07:05:53;16.85;;;15.45;;
53036;SDS011;38924;52.134;4.666;2023-06-10T07:08:18;17.40;;;15.80;;
53036;SDS011;38924;52.134;4.666;2023-06-10T07:10:44;16.55;;;15.20;;
53036;SDS011;38924;52.134;4.666;2023-06-10T07:13:10;15.80;;;14.35;;
53036;SDS011;38924;52.134;4.666;2023-06-10T07:15:36;15.82;;;14.38;;
53036;SDS011;38924;52.134;4.666;2023-06-10T07:18:01;15.93;;;14.52;;
53036;SDS011;38924;52.134;4.666;2023-06-10T07:20:27;14.40;;;13.25;;
53036;SDS011;38924;52.134;4.666;2023-06-10T07:22:52;15.38;;;13.80;;
53036;SDS011;38924;52.134;4.666;2023-06-10T07:25:19;17.60;;;15.80;;
53036;SDS011;38924;52.134;4.666;2023-06-10T07:27:44;16.52;;;15.10;;
53036;SDS011;38924;52.134;4.666;2023-06-10T07:30:10;14.60;;;13.18;;
53036;SDS011;38924;52.134;4.666;2023-06-10T07:32:36;20.23;;;14.43;;
53036;SDS011;38924;52.134;4.666;2023-06-10T07:35:02;17.67;;;15.20;;
53036;SDS011;38924;52.134;4.666;2023-06-10T07:37:28;17.35;;;14.60;;
53036;SDS011;38924;52.134;4.666;2023-06-10T07:39:53;15.77;;;14.38;;
53036;SDS011;38924;52.134;4.666;2023-06-10T07:42:19;17.00;;;15.63;;
53036;SDS011;38924;52.134;4.666;2023-06-10T07:44:45;17.90;;;16.10;;
53036;SDS011;38924;52.134;4.666;2023-06-10T07:47:11;19.17;;;17.42;;
53036;SDS011;38924;52.134;4.666;2023-06-10T07:49:36;22.30;;;17.88;;
53036;SDS011;38924;52.134;4.666;2023-06-10T07:52:02;19.92;;;18.02;;
53036;SDS011;38924;52.134;4.666;2023-06-10T07:54:28;17.80;;;16.08;;
53036;SDS011;38924;52.134;4.666;2023-06-10T07:56:53;14.63;;;13.23;;
53036;SDS011;38924;52.134;4.666;2023-06-10T07:59:19;17.13;;;15.75;;
53036;SDS011;38924;52.134;4.666;2023-06-10T08:01:45;17.05;;;15.63;;
53036;SDS011;38924;52.134;4.666;2023-06-10T08:04:11;14.90;;;13.25;;
53036;SDS011;38924;52.134;4.666;2023-06-10T08:06:37;16.85;;;15.32;;
53036;SDS011;38924;52.134;4.666;2023-06-10T08:09:03;15.98;;;14.55;;
53036;SDS011;38924;52.134;4.666;2023-06-10T08:11:31;17.88;;;14.70;;
53036;SDS011;38924;52.134;4.666;2023-06-10T08:13:57;15.88;;;14.50;;
53036;SDS011;38924;52.134;4.666;2023-06-10T08:16:23;15.48;;;13.98;;
53036;SDS011;38924;52.134;4.666;2023-06-10T08:18:48;19.40;;;15.45;;
53036;SDS011;38924;52.134;4.666;2023-06-10T08:21:16;17.95;;;13.55;;
53036;SDS011;38924;52.134;4.666;2023-06-10T08:23:41;18.42;;;15.43;;
53036;SDS011;38924;52.134;4.666;2023-06-10T08:26:07;19.73;;;15.57;;
53036;SDS011;38924;52.134;4.666;2023-06-10T08:28:33;20.05;;;17.95;;
53036;SDS011;38924;52.134;4.666;2023-06-10T08:30:58;16.15;;;14.75;;
53036;SDS011;38924;52.134;4.666;2023-06-10T08:33:24;15.68;;;14.23;;
53036;SDS011;38924;52.134;4.666;2023-06-10T08:35:50;15.57;;;14.07;;
53036;SDS011;38924;52.134;4.666;2023-06-10T08:38:15;24.10;;;13.05;;
53036;SDS011;38924;52.134;4.666;2023-06-10T08:40:41;26.42;;;14.00;;
53036;SDS011;38924;52.134;4.666;2023-06-10T08:43:08;16.40;;;14.75;;
53036;SDS011;38924;52.134;4.666;2023-06-10T08:45:36;43.50;;;14.23;;
53036;SDS011;38924;52.134;4.666;2023-06-10T08:48:03;18.95;;;14.77;;
53036;SDS011;38924;52.134;4.666;2023-06-10T08:50:37;15.57;;;14.18;;
53036;SDS011;38924;52.134;4.666;2023-06-10T08:53:04;16.08;;;14.40;;
53036;SDS011;38924;52.134;4.666;2023-06-10T08:55:31;17.33;;;15.52;;
53036;SDS011;38924;52.134;4.666;2023-06-10T08:57:58;16.67;;;13.65;;
53036;SDS011;38924;52.134;4.666;2023-06-10T09:00:24;28.83;;;15.98;;
53036;SDS011;38924;52.134;4.666;2023-06-10T09:02:50;22.98;;;13.85;;
53036;SDS011;38924;52.134;4.666;2023-06-10T09:05:16;17.65;;;15.65;;
53036;SDS011;38924;52.134;4.666;2023-06-10T09:07:42;15.68;;;13.60;;
53036;SDS011;38924;52.134;4.666;2023-06-10T09:10:08;15.10;;;13.70;;
53036;SDS011;38924;52.134;4.666;2023-06-10T09:12:34;14.65;;;13.25;;
53036;SDS011;38924;52.134;4.666;2023-06-10T09:15:01;14.25;;;12.88;;
53036;SDS011;38924;52.134;4.666;2023-06-10T09:17:26;13.88;;;12.65;;
53036;SDS011;38924;52.134;4.666;2023-06-10T09:19:52;15.93;;;13.32;;
53036;SDS011;38924;52.134;4.666;2023-06-10T09:22:23;17.17;;;15.15;;
53036;SDS011;38924;52.134;4.666;2023-06-10T09:24:49;16.77;;;15.27;;
53036;SDS011;38924;52.134;4.666;2023-06-10T09:27:15;18.83;;;14.30;;
53036;SDS011;38924;52.134;4.666;2023-06-10T09:29:53;15.45;;;14.02;;
53036;SDS011;38924;52.134;4.666;2023-06-10T09:32:20;15.43;;;14.20;;
53036;SDS011;38924;52.134;4.666;2023-06-10T09:34:45;15.05;;;13.55;;
53036;SDS011;38924;52.134;4.666;2023-06-10T09:37:11;13.48;;;12.27;;
53036;SDS011;38924;52.134;4.666;2023-06-10T09:39:39;13.40;;;12.05;;
53036;SDS011;38924;52.134;4.666;2023-06-10T09:42:18;13.43;;;12.25;;
53036;SDS011;38924;52.134;4.666;2023-06-10T09:44:50;14.05;;;12.63;;
53036;SDS011;38924;52.134;4.666;2023-06-10T09:47:20;15.02;;;13.50;;
53036;SDS011;38924;52.134;4.666;2023-06-10T09:49:46;13.75;;;12.10;;
53036;SDS011;38924;52.134;4.666;2023-06-10T09:52:11;16.13;;;12.95;;
53036;SDS011;38924;52.134;4.666;2023-06-10T09:54:37;15.00;;;13.40;;
53036;SDS011;38924;52.134;4.666;2023-06-10T09:57:06;14.95;;;13.48;;
53036;SDS011;38924;52.134;4.666;2023-06-10T09:59:32;12.70;;;11.43;;
53036;SDS011;38924;52.134;4.666;2023-06-10T10:02:00;21.33;;;12.25;;
53036;SDS011;38924;52.134;4.666;2023-06-10T10:04:26;12.88;;;11.07;;
53036;SDS011;38924;52.134;4.666;2023-06-10T10:06:52;13.10;;;11.52;;
53036;SDS011;38924;52.134;4.666;2023-06-10T10:09:18;15.60;;;10.95;;
53036;SDS011;38924;52.134;4.666;2023-06-10T10:11:43;11.43;;;10.20;;
53036;SDS011;38924;52.134;4.666;2023-06-10T10:14:12;32.13;;;12.52;;
53036;SDS011;38924;52.134;4.666;2023-06-10T10:16:40;15.90;;;11.35;;
53036;SDS011;38924;52.134;4.666;2023-06-10T10:19:11;11.13;;;10.10;;
53036;SDS011;38924;52.134;4.666;2023-06-10T10:21:43;13.00;;;9.10;;
53036;SDS011;38924;52.134;4.666;2023-06-10T10:24:17;11.90;;;9.65;;
53036;SDS011;38924;52.134;4.666;2023-06-10T10:26:45;12.75;;;11.15;;
53036;SDS011;38924;52.134;4.666;2023-06-10T10:29:16;12.68;;;10.38;;
53036;SDS011;38924;52.134;4.666;2023-06-10T10:31:42;12.10;;;11.13;;
53036;SDS011;38924;52.134;4.666;2023-06-10T10:34:12;13.85;;;12.63;;
53036;SDS011;38924;52.134;4.666;2023-06-10T10:36:42;16.92;;;13.23;;
53036;SDS011;38924;52.134;4.666;2023-06-10T10:39:08;12.20;;;11.05;;
53036;SDS011;38924;52.134;4.666;2023-06-10T10:41:34;10.23;;;9.40;;
53036;SDS011;38924;52.134;4.666;2023-06-10T10:44:02;13.63;;;11.77;;
53036;SDS011;38924;52.134;4.666;2023-06-10T10:46:42;16.17;;;11.23;;
53036;SDS011;38924;52.134;4.666;2023-06-10T10:49:08;11.10;;;9.98;;
53036;SDS011;38924;52.134;4.666;2023-06-10T10:51:34;12.73;;;11.48;;
53036;SDS011;38924;52.134;4.666;2023-06-10T10:54:13;13.93;;;12.57;;
53036;SDS011;38924;52.134;4.666;2023-06-10T10:56:39;13.30;;;11.98;;
53036;SDS011;38924;52.134;4.666;2023-06-10T10:59:05;13.80;;;12.07;;
53036;SDS011;38924;52.134;4.666;2023-06-10T11:01:43;12.30;;;11.13;;
53036;SDS011;38924;52.134;4.666;2023-06-10T11:04:12;15.88;;;11.50;;
53036;SDS011;38924;52.134;4.666;2023-06-10T11:06:38;14.35;;;11.13;;
53036;SDS011;38924;52.134;4.666;2023-06-10T11:09:25;12.52;;;10.95;;
53036;SDS011;38924;52.134;4.666;2023-06-10T11:11:51;12.18;;;11.23;;
53036;SDS011;38924;52.134;4.666;2023-06-10T11:14:25;14.63;;;10.82;;
53036;SDS011;38924;52.134;4.666;2023-06-10T11:16:51;12.20;;;10.98;;
53036;SDS011;38924;52.134;4.666;2023-06-10T11:19:37;11.85;;;10.68;;
53036;SDS011;38924;52.134;4.666;2023-06-10T11:22:07;17.00;;;10.75;;
53036;SDS011;38924;52.134;4.666;2023-06-10T11:24:33;11.20;;;10.32;;
53036;SDS011;38924;52.134;4.666;2023-06-10T11:27:17;11.63;;;10.07;;
53036;SDS011;38924;52.134;4.666;2023-06-10T11:32:21;13.10;;;11.68;;
53036;SDS011;38924;52.134;4.666;2023-06-10T11:34:53;14.52;;;11.73;;
53036;SDS011;38924;52.134;4.666;2023-06-10T11:37:19;13.13;;;12.02;;
53036;SDS011;38924;52.134;4.666;2023-06-10T11:39:45;18.20;;;13.93;;
53036;SDS011;38924;52.134;4.666;2023-06-10T11:42:11;16.80;;;15.20;;
53036;SDS011;38924;52.134;4.666;2023-06-10T11:44:36;12.15;;;10.73;;
53036;SDS011;38924;52.134;4.666;2023-06-10T11:47:03;11.35;;;10.52;;
53036;SDS011;38924;52.134;4.666;2023-06-10T11:49:29;11.05;;;10.20;;
53036;SDS011;38924;52.134;4.666;2023-06-10T11:51:57;11.70;;;10.70;;
53036;SDS011;38924;52.134;4.666;2023-06-10T11:54:35;14.40;;;13.07;;
53036;SDS011;38924;52.134;4.666;2023-06-10T11:57:01;14.77;;;13.63;;
53036;SDS011;38924;52.134;4.666;2023-06-10T11:59:28;13.95;;;12.65;;
53036;SDS011;38924;52.134;4.666;2023-06-10T12:01:54;15.52;;;14.10;;
53036;SDS011;38924;52.134;4.666;2023-06-10T12:04:20;13.15;;;11.88;;
53036;SDS011;38924;52.134;4.666;2023-06-10T12:06:50;14.77;;;13.45;;
53036;SDS011;38924;52.134;4.666;2023-06-10T12:09:17;12.00;;;11.10;;
53036;SDS011;38924;52.134;4.666;2023-06-10T12:11:48;12.88;;;11.65;;
53036;SDS011;38924;52.134;4.666;2023-06-10T12:14:13;14.02;;;13.02;;
53036;SDS011;38924;52.134;4.666;2023-06-10T12:16:39;16.02;;;14.88;;
53036;SDS011;38924;52.134;4.666;2023-06-10T12:19:05;17.45;;;15.25;;
53036;SDS011;38924;52.134;4.666;2023-06-10T12:21:32;15.75;;;14.50;;
53036;SDS011;38924;52.134;4.666;2023-06-10T12:24:10;14.63;;;13.18;;
53036;SDS011;38924;52.134;4.666;2023-06-10T12:26:40;15.77;;;14.50;;
53036;SDS011;38924;52.134;4.666;2023-06-10T12:29:19;15.25;;;14.07;;
53036;SDS011;38924;52.134;4.666;2023-06-10T12:31:52;15.90;;;14.35;;
53036;SDS011;38924;52.134;4.666;2023-06-10T12:34:18;18.55;;;17.10;;
53036;SDS011;38924;52.134;4.666;2023-06-10T12:36:49;14.73;;;13.20;;
53036;SDS011;38924;52.134;4.666;2023-06-10T12:39:15;15.63;;;14.32;;
53036;SDS011;38924;52.134;4.666;2023-06-10T12:41:46;14.98;;;13.80;;
53036;SDS011;38924;52.134;4.666;2023-06-10T12:44:14;15.65;;;14.40;;
53036;SDS011;38924;52.134;4.666;2023-06-10T12:46:40;15.52;;;14.02;;
53036;SDS011;38924;52.134;4.666;2023-06-10T12:49:06;14.25;;;13.15;;
53036;SDS011;38924;52.134;4.666;2023-06-10T12:51:31;15.65;;;14.25;;
53036;SDS011;38924;52.134;4.666;2023-06-10T12:53:57;13.73;;;12.68;;
53036;SDS011;38924;52.134;4.666;2023-06-10T12:56:23;14.80;;;13.43;;
53036;SDS011;38924;52.134;4.666;2023-06-10T12:58:49;15.48;;;13.65;;
53036;SDS011;38924;52.134;4.666;2023-06-10T13:01:15;13.43;;;12.43;;
53036;SDS011;38924;52.134;4.666;2023-06-10T13:03:40;15.65;;;12.82;;
53036;SDS011;38924;52.134;4.666;2023-06-10T13:06:06;16.70;;;15.38;;
53036;SDS011;38924;52.134;4.666;2023-06-10T13:08:35;14.65;;;13.18;;
53036;SDS011;38924;52.134;4.666;2023-06-10T13:11:01;15.80;;;14.30;;
53036;SDS011;38924;52.134;4.666;2023-06-10T13:13:26;13.57;;;12.43;;
53036;SDS011;38924;52.134;4.666;2023-06-10T13:15:52;13.95;;;12.73;;
53036;SDS011;38924;52.134;4.666;2023-06-10T13:18:18;13.75;;;12.27;;
53036;SDS011;38924;52.134;4.666;2023-06-10T13:20:47;13.88;;;12.60;;
53036;SDS011;38924;52.134;4.666;2023-06-10T13:23:12;14.20;;;12.60;;
53036;SDS011;38924;52.134;4.666;2023-06-10T13:25:39;15.13;;;11.60;;
53036;SDS011;38924;52.134;4.666;2023-06-10T13:28:06;14.82;;;13.30;;
53036;SDS011;38924;52.134;4.666;2023-06-10T13:30:32;14.50;;;13.30;;
53036;SDS011;38924;52.134;4.666;2023-06-10T13:32:57;13.57;;;12.48;;
53036;SDS011;38924;52.134;4.666;2023-06-10T13:35:23;14.27;;;12.88;;
53036;SDS011;38924;52.134;4.666;2023-06-10T13:37:48;17.35;;;14.60;;
53036;SDS011;38924;52.134;4.666;2023-06-10T13:40:15;13.80;;;12.38;;
53036;SDS011;38924;52.134;4.666;2023-06-10T13:42:41;16.08;;;14.68;;
53036;SDS011;38924;52.134;4.666;2023-06-10T13:45:06;14.82;;;13.35;;
53036;SDS011;38924;52.134;4.666;2023-06-10T13:47:32;15.85;;;13.88;;
53036;SDS011;38924;52.134;4.666;2023-06-10T13:49:58;19.48;;;17.45;;
53036;SDS011;38924;52.134;4.666;2023-06-10T13:52:24;14.48;;;13.18;;
53036;SDS011;38924;52.134;4.666;2023-06-10T13:54:50;17.90;;;16.08;;
53036;SDS011;38924;52.134;4.666;2023-06-10T13:57:16;14.55;;;13.25;;
53036;SDS011;38924;52.134;4.666;2023-06-10T13:59:41;16.55;;;14.05;;
53036;SDS011;38924;52.134;4.666;2023-06-10T14:02:10;14.73;;;13.63;;
53036;SDS011;38924;52.134;4.666;2023-06-10T14:04:35;15.27;;;13.73;;
53036;SDS011;38924;52.134;4.666;2023-06-10T14:07:04;18.17;;;14.48;;
53036;SDS011;38924;52.134;4.666;2023-06-10T14:09:30;14.93;;;13.43;;
53036;SDS011;38924;52.134;4.666;2023-06-10T14:11:56;16.30;;;15.10;;
53036;SDS011;38924;52.134;4.666;2023-06-10T14:14:22;15.85;;;14.40;;
53036;SDS011;38924;52.134;4.666;2023-06-10T14:16:48;14.60;;;13.45;;
53036;SDS011;38924;52.134;4.666;2023-06-10T14:19:13;16.05;;;14.75;;
53036;SDS011;38924;52.134;4.666;2023-06-10T14:21:39;16.40;;;12.70;;
53036;SDS011;38924;52.134;4.666;2023-06-10T14:24:05;17.83;;;14.40;;
53036;SDS011;38924;52.134;4.666;2023-06-10T14:26:31;14.50;;;13.35;;
53036;SDS011;38924;52.134;4.666;2023-06-10T14:28:58;15.23;;;13.75;;